Time;durP1;ratioP1;P1;durP2;ratioP2;P2;SDS_P1;SDS_P2;PMS_P1;PMS_P2;Temp;Humidity;BMP_temperature;BMP_pressure;BME280_temperature;BME280_humidity;BME280_pressure;Samples;Min_cycle;Max_cycle;Signal;HPM_P1;HPM_P2
2023/03/14 00:00:51;;;;;;;13.07;11.43;;;;;;;1.55;100.00;146450.34;5115334;28;20221;-66
2023/03/14 00:03:18;;;;;;;17.87;10.90;;;;;;;1.65;100.00;146475.47;5115249;28;20527;-64
2023/03/14 00:05:45;;;;;;;13.50;9.80;;;;;;;1.60;100.00;146464.16;5115004;28;20190;-64
2023/03/14 00:08:13;;;;;;;13.93;8.20;;;;;;;1.59;100.00;146460.38;5114596;28;20183;-64
2023/03/14 00:10:40;;;;;;;9.47;8.57;;;;;;;1.58;100.00;146457.88;5114598;28;20183;-65
2023/03/14 00:13:07;;;;;;;26.13;9.07;;;;;;;1.44;100.00;146422.78;5113654;28;20207;-64
2023/03/14 00:15:35;;;;;;;9.43;8.57;;;;;;;1.46;100.00;146429.03;5114395;28;20186;-65
2023/03/14 00:18:02;;;;;;;9.93;8.23;;;;;;;1.47;100.00;146430.28;5114360;28;20320;-64
2023/03/14 00:20:29;;;;;;;17.57;8.13;;;;;;;1.38;100.00;146410.22;5114757;28;20237;-66
2023/03/14 00:22:56;;;;;;;9.00;7.73;;;;;;;1.41;100.00;146416.47;5114902;28;20211;-65
2023/03/14 00:25:24;;;;;;;8.67;7.97;;;;;;;1.00;100.00;146314.91;5114734;28;20195;-65
2023/03/14 00:27:51;;;;;;;8.17;7.47;;;;;;;1.26;100.00;146380.13;5114382;28;20183;-64
2023/03/14 00:30:21;;;;;;;8.10;7.30;;;;;;;1.35;100.00;146402.72;5114382;28;20187;-66
2023/03/14 00:32:50;;;;;;;10.50;8.00;;;;;;;1.30;100.00;146390.16;5114817;28;20226;-65
2023/03/14 00:35:17;;;;;;;12.07;8.50;;;;;;;1.17;100.00;146356.28;5114556;28;20226;-64
2023/03/14 00:37:44;;;;;;;13.93;7.57;;;;;;;0.82;100.00;146271.03;5114609;28;20591;-64
2023/03/14 00:40:12;;;;;;;9.97;7.73;;;;;;;1.10;100.00;146338.75;5114424;28;20642;-65
2023/03/14 00:42:40;;;;;;;7.30;6.90;;;;;;;1.34;100.00;146398.94;5114097;28;20182;-64
2023/03/14 00:45:08;;;;;;;8.17;7.53;;;;;;;1.36;100.00;146405.19;5114036;28;20190;-64
2023/03/14 00:47:35;;;;;;;10.07;8.40;;;;;;;1.58;100.00;146459.13;5114358;28;20240;-66
2023/03/14 00:50:02;;;;;;;10.37;7.83;;;;;;;1.63;100.00;146471.69;5114338;28;20607;-64
2023/03/14 00:52:29;;;;;;;7.80;7.10;;;;;;;1.78;100.00;146509.28;5114158;28;20204;-64
2023/03/14 00:54:56;;;;;;;13.77;9.00;;;;;;;1.97;100.00;146555.75;5114017;28;20198;-64
2023/03/14 00:57:23;;;;;;;15.43;8.13;;;;;;;1.74;100.00;146499.25;5113953;28;20188;-64
2023/03/14 00:59:52;;;;;;;5.20;4.80;;;;;;;1.99;100.00;146559.53;5113988;28;20189;-65
2023/03/14 01:02:18;;;;;;;5.43;4.73;;;;;;;2.15;100.00;146600.94;5114506;28;20184;-65
2023/03/14 01:04:47;;;;;;;6.33;5.83;;;;;;;2.20;100.00;146612.22;5114716;28;20661;-65
2023/03/14 01:07:14;;;;;;;6.93;6.40;;;;;;;1.93;100.00;146544.44;5115309;28;20657;-65
2023/03/14 01:09:41;;;;;;;7.47;6.77;;;;;;;2.03;100.00;146569.56;5115087;28;20700;-65
2023/03/14 01:12:08;;;;;;;7.33;5.97;;;;;;;1.91;100.00;146540.66;5115004;28;20545;-65
2023/03/14 01:14:35;;;;;;;6.10;5.50;;;;;;;1.99;100.00;146560.78;5114276;28;20558;-65
2023/03/14 01:17:04;;;;;;;6.60;6.23;;;;;;;1.83;100.00;146521.84;5061035;28;20251;-64
2023/03/14 01:19:31;;;;;;;5.93;5.43;;;;;;;1.79;100.00;146510.56;5030018;28;20194;-65
2023/03/14 01:21:58;;;;;;;6.57;6.03;;;;;;;1.91;100.00;146540.66;5030234;28;20252;-65
2023/03/14 01:24:25;;;;;;;7.43;5.80;;;;;;;1.69;100.00;146485.50;5030211;28;20565;-65
2023/03/14 01:26:51;;;;;;;5.70;5.23;;;;;;;1.97;100.00;146555.75;5029703;28;20193;-64
2023/03/14 01:29:18;;;;;;;8.13;6.27;;;;;;;1.76;100.00;146504.28;5029875;28;20193;-65
2023/03/14 01:31:45;;;;;;;6.63;6.07;;;;;;;1.70;100.00;146487.97;5029680;28;20190;-64
2023/03/14 01:34:14;;;;;;;6.10;5.70;;;;;;;1.42;100.00;146419.00;5029605;28;20201;-63
2023/03/14 01:36:40;;;;;;;6.37;5.97;;;;;;;1.32;100.00;146395.16;5030029;28;20200;-64
2023/03/14 01:39:08;;;;;;;7.00;6.30;;;;;;;0.85;100.00;146278.53;5029433;28;20195;-64
2023/03/14 01:41:35;;;;;;;11.37;6.33;;;;;;;1.12;100.00;146345.00;5029672;28;20202;-64
2023/03/14 01:44:02;;;;;;;12.67;5.70;;;;;;;1.11;100.00;146341.22;5029475;28;20182;-65
2023/03/14 01:46:37;;;;;;;7.57;6.70;;;;;;;1.09;100.00;146337.50;5029431;28;20201;-66
2023/03/14 01:49:14;;;;;;;10.47;6.97;;;;;;;1.32;100.00;146393.88;5029352;28;20190;-65
2023/03/14 01:51:47;;;;;;;8.17;5.93;;;;;;;1.15;100.00;146352.50;5029471;28;20197;-64
2023/03/14 01:54:19;;;;;;;6.67;6.27;;;;;;;1.21;100.00;146366.31;5029584;28;20548;-65
2023/03/14 01:56:51;;;;;;;6.00;5.70;;;;;;;1.33;100.00;146396.41;5029344;28;20186;-65
2023/03/14 01:59:18;;;;;;;10.80;6.40;;;;;;;1.43;100.00;146420.25;5029460;28;20186;-63
2023/03/14 02:01:48;;;;;;;6.30;5.63;;;;;;;1.15;100.00;146351.25;5029205;28;20194;-64
2023/03/14 02:04:20;;;;;;;8.80;7.23;;;;;;;1.31;100.00;146391.41;5029654;28;20270;-64
2023/03/14 02:06:53;;;;;;;7.67;6.97;;;;;;;1.19;100.00;146362.53;5029146;28;20194;-65
2023/03/14 02:09:21;;;;;;;8.80;7.10;;;;;;;1.15;100.00;146352.50;5029411;28;20186;-65
2023/03/14 02:11:50;;;;;;;7.13;6.53;;;;;;;1.07;100.00;146331.19;5029727;28;20576;-65
2023/03/14 02:14:28;;;;;;;7.20;6.60;;;;;;;1.13;100.00;146347.53;5029367;28;20652;-65
2023/03/14 02:16:55;;;;;;;11.00;7.10;;;;;;;0.96;100.00;146304.88;5066071;28;20230;-64
2023/03/14 02:19:32;;;;;;;11.77;7.43;;;;;;;0.54;100.00;146200.84;5112648;28;20577;-64
2023/03/14 02:22:05;;;;;;;9.80;7.97;;;;;;;1.07;100.00;146332.44;5112493;28;20222;-65
2023/03/14 02:24:40;;;;;;;6.60;6.10;;;;;;;0.88;100.00;146284.81;5112693;28;20183;-64
2023/03/14 02:27:11;;;;;;;11.27;7.13;;;;;;;0.80;100.00;146264.78;5112201;28;20187;-64
2023/03/14 02:29:46;;;;;;;18.07;8.13;;;;;;;0.62;100.00;146219.63;5112566;28;20581;-64
2023/03/14 02:32:14;;;;;;;22.40;7.13;;;;;;;0.95;100.00;146301.09;5112453;28;20232;-64
2023/03/14 02:34:43;;;;;;;8.07;7.30;;;;;;;0.72;100.00;146244.72;5112503;28;20187;-64
2023/03/14 02:37:11;;;;;;;9.23;7.80;;;;;;;0.77;100.00;146258.47;5111625;28;20642;-64
2023/03/14 02:39:40;;;;;;;11.77;7.73;;;;;;;0.99;100.00;146312.38;5112427;28;20634;-65
2023/03/14 02:42:09;;;;;;;8.40;7.30;;;;;;;0.89;100.00;146287.34;5112180;28;20195;-64
2023/03/14 02:44:36;;;;;;;11.50;7.70;;;;;;;0.99;100.00;146312.38;5112531;28;20198;-64
2023/03/14 02:47:04;;;;;;;10.73;7.90;;;;;;;0.96;100.00;146304.88;5112163;28;20184;-64
2023/03/14 02:49:33;;;;;;;14.07;9.87;;;;;;;0.97;100.00;146307.41;5112355;28;20676;-64
2023/03/14 02:51:59;;;;;;;10.47;9.60;;;;;;;1.01;100.00;146317.44;5112220;28;20683;-63
2023/03/14 02:54:26;;;;;;;16.20;9.00;;;;;;;0.77;100.00;146257.22;5112259;28;20539;-63
2023/03/14 02:56:53;;;;;;;15.83;9.27;;;;;;;0.73;100.00;146248.47;5112217;28;20188;-65
2023/03/14 02:59:21;;;;;;;15.20;9.10;;;;;;;0.61;100.00;146217.13;5112310;28;20191;-64
2023/03/14 03:01:48;;;;;;;9.43;8.53;;;;;;;0.49;100.00;146188.31;5112173;28;20191;-63
2023/03/14 03:04:15;;;;;;;11.40;8.63;;;;;;;0.38;100.00;146160.75;5111773;28;20670;-66
2023/03/14 03:06:42;;;;;;;18.20;10.27;;;;;;;0.45;100.00;146179.53;5112051;28;20195;-63
2023/03/14 03:09:09;;;;;;;15.40;10.13;;;;;;;0.60;100.00;146215.84;5111988;28;20199;-64
2023/03/14 03:11:36;;;;;;;13.57;9.83;;;;;;;0.66;100.00;145715.63;5111943;28;20184;-64
2023/03/14 03:14:03;;;;;;;13.67;9.47;;;;;;;0.76;100.00;146256.00;5111748;28;20215;-64
2023/03/14 03:16:31;;;;;;;12.23;9.63;;;;;;;0.78;100.00;146261.00;5111544;28;20234;-64
2023/03/14 03:18:58;;;;;;;13.97;11.20;;;;;;;0.89;100.00;146288.56;5111770;28;20186;-64
2023/03/14 03:21:24;;;;;;;16.70;10.30;;;;;;;0.98;100.00;146309.88;5112061;28;20184;-64
2023/03/14 03:23:52;;;;;;;9.93;8.40;;;;;;;0.76;100.00;146254.75;5111967;28;20630;-64
2023/03/14 03:26:18;;;;;;;8.03;7.43;;;;;;;0.71;100.00;146243.47;5111688;28;20187;-65
2023/03/14 03:28:45;;;;;;;9.17;8.27;;;;;;;0.87;100.00;146282.31;5112149;28;20584;-65
2023/03/14 03:31:13;;;;;;;14.13;9.60;;;;;;;0.81;100.00;146267.25;5111809;28;20186;-64
2023/03/14 03:33:41;;;;;;;11.30;8.10;;;;;;;0.84;100.00;146276.06;5111652;28;20211;-65
2023/03/14 03:36:10;;;;;;;10.67;7.93;;;;;;;0.77;100.00;146258.47;5111799;28;20630;-65
2023/03/14 03:38:37;;;;;;;20.13;9.77;;;;;;;0.59;100.00;146212.13;5111495;28;20198;-64
2023/03/14 03:41:05;;;;;;;15.27;8.90;;;;;;;0.25;100.00;146129.44;5111769;28;20214;-64
2023/03/14 03:43:33;;;;;;;19.67;9.30;;;;;;;0.22;100.00;146120.63;5069957;28;20190;-64
2023/03/14 03:46:03;;;;;;;16.87;9.47;;;;;;;-0.05;100.00;146055.53;5111738;28;20539;-64
2023/03/14 03:48:30;;;;;;;22.73;9.27;;;;;;;0.12;100.00;146096.84;5112642;28;20187;-64
2023/03/14 03:50:58;;;;;;;11.43;8.00;;;;;;;0.36;100.00;146156.97;5115305;28;20184;-65
2023/03/14 03:53:25;;;;;;;12.93;8.77;;;;;;;0.21;100.00;146119.38;5114820;28;20203;-65
2023/03/14 03:55:52;;;;;;;16.87;9.00;;;;;;;0.25;100.00;146128.16;5115073;28;20198;-65
2023/03/14 03:58:19;;;;;;;13.90;8.57;;;;;;;0.02;100.00;146071.78;5115226;28;20557;-64
2023/03/14 04:00:46;;;;;;;23.00;9.13;;;;;;;-0.06;100.00;146051.75;5114963;28;20191;-64
2023/03/14 04:03:12;;;;;;;16.47;8.40;;;;;;;-0.02;100.00;146061.75;5114960;28;20190;-65
2023/03/14 04:05:39;;;;;;;21.87;9.47;;;;;;;-0.31;100.00;145990.38;5115145;28;20183;-65
2023/03/14 04:08:08;;;;;;;21.67;8.97;;;;;;;-0.19;100.00;146019.16;5115128;28;20664;-65
2023/03/14 04:10:35;;;;;;;18.93;8.70;;;;;;;-0.18;100.00;145517.38;5114981;28;20531;-65
2023/03/14 04:13:02;;;;;;;10.20;7.50;;;;;;;-0.13;100.00;139837.16;5114961;28;20218;-65
2023/03/14 04:15:29;;;;;;;13.07;8.80;;;;;;;-0.13;100.00;136024.72;5114603;28;20269;-65
2023/03/14 04:17:57;;;;;;;11.00;8.07;;;;;;;0.07;100.00;132757.84;5114313;28;20608;-64
2023/03/14 04:20:24;;;;;;;13.27;7.47;;;;;;;0.06;100.00;136508.34;5114445;28;20183;-64
2023/03/14 04:22:51;;;;;;;11.63;7.40;;;;;;;0.09;100.00;138306.44;5115040;28;20187;-63
2023/03/14 04:25:19;;;;;;;17.07;7.77;;;;;;;0.13;100.00;135574.53;5114689;28;20742;-64
2023/03/14 04:27:47;;;;;;;14.33;8.03;;;;;;;0.11;100.00;135493.31;5114502;28;20598;-64
2023/03/14 04:30:14;;;;;;;10.57;7.70;;;;;;;-0.27;100.00;136071.16;5114630;28;20630;-64
2023/03/14 04:32:41;;;;;;;9.33;8.20;;;;;;;-0.09;100.00;129172.34;5114294;28;20180;-64
2023/03/14 04:35:09;;;;;;;8.83;8.03;;;;;;;-0.15;100.00;130321.13;5114529;28;20645;-64
2023/03/14 04:37:36;;;;;;;16.10;8.53;;;;;;;-0.25;100.00;127746.09;5114545;28;20244;-65
2023/03/14 04:40:06;;;;;;;18.27;8.47;;;;;;;0.07;100.00;122173.28;5114355;28;20554;-63
2023/03/14 04:42:34;;;;;;;11.43;8.17;;;;;;;0.48;100.00;121719.59;5114056;28;20203;-64
2023/03/14 04:45:01;;;;;;;14.77;8.00;;;;;;;0.44;100.00;130417.38;5114329;28;20191;-64
2023/03/14 04:47:28;;;;;;;17.17;8.33;;;;;;;0.59;100.00;135937.38;5114250;28;20248;-64
2023/03/14 04:49:55;;;;;;;21.17;8.77;;;;;;;0.61;100.00;142146.03;5113923;28;20233;-64
2023/03/14 04:52:22;;;;;;;12.90;8.20;;;;;;;0.74;100.00;146118.94;5114151;28;20566;-65
2023/03/14 04:54:49;;;;;;;20.87;10.20;;;;;;;0.83;100.00;146272.28;5095807;28;20199;-64
2023/03/14 04:57:15;;;;;;;27.63;10.93;;;;;;;1.32;100.00;146393.88;5114207;28;20187;-66
2023/03/14 04:59:44;;;;;;;40.20;12.03;;;;;;;1.76;100.00;140964.47;5113979;28;20626;-65
2023/03/14 05:02:11;;;;;;;38.07;14.60;;;;;;;2.28;100.00;137207.41;5114155;28;20615;-64
2023/03/14 05:04:38;;;;;;;40.20;14.80;;;;;;;3.30;100.00;145811.00;5113963;28;20183;-65
2023/03/14 05:07:06;;;;;;;10.60;9.57;;;;;;;4.50;100.00;147183.84;5113910;28;20183;-65
2023/03/14 05:09:33;;;;;;;13.30;9.27;;;;;;;5.68;100.00;147478.34;5113667;28;20188;-65
2023/03/14 05:11:59;;;;;;;31.27;11.27;;;;;;;6.50;100.00;147682.38;5113779;28;20202;-69
2023/03/14 05:14:26;;;;;;;40.83;10.87;;;;;;;7.25;100.00;147868.91;5113196;28;20208;-67
2023/03/14 05:16:55;;;;;;;34.23;12.40;;;;;;;7.61;100.00;147959.66;5113541;28;20613;-64
2023/03/14 05:19:21;;;;;;;42.47;11.30;;;;;;;8.10;100.00;148082.03;5113452;28;20199;-66
2023/03/14 05:21:48;;;;;;;52.53;14.27;;;;;;;8.65;100.00;148218.34;5113367;28;20275;-66
2023/03/14 05:24:15;;;;;;;43.70;13.07;;;;;;;9.01;100.00;148307.94;5113597;28;20631;-66
2023/03/14 05:26:42;;;;;;;48.53;15.37;;;;;;;9.12;100.00;148336.97;5113258;28;20187;-66
2023/03/14 05:29:09;;;;;;;68.40;14.63;;;;;;;9.08;100.00;148325.63;5095053;28;20179;-68
2023/03/14 05:31:36;;;;;;;38.60;13.80;;;;;;;8.79;100.00;148253.66;5113947;28;20701;-66
2023/03/14 05:34:04;;;;;;;25.73;11.73;;;;;;;9.35;100.00;148393.81;5113712;28;20204;-66
2023/03/14 05:36:31;;;;;;;77.23;15.40;;;;;;;9.75;100.00;148492.31;5112970;28;20279;-66
2023/03/14 05:38:58;;;;;;;79.60;18.23;;;;;;;10.37;100.00;148649.03;5112959;28;20194;-67
2023/03/14 05:41:24;;;;;;;56.00;14.20;;;;;;;10.49;100.00;148678.09;5112949;28;20187;-66
2023/03/14 05:43:51;;;;;;;64.87;14.13;;;;;;;10.72;100.00;148735.00;5113486;28;20315;-66
2023/03/14 05:46:18;;;;;;;45.73;13.30;;;;;;;10.68;100.00;148726.16;5113345;28;20191;-67
2023/03/14 05:48:45;;;;;;;39.47;12.80;;;;;;;10.57;100.00;148697.03;5112945;28;20189;-66
2023/03/14 05:51:13;;;;;;;59.83;16.60;;;;;;;10.09;100.00;148578.25;5113215;28;20209;-66
2023/03/14 05:53:40;;;;;;;31.43;12.27;;;;;;;9.75;100.00;148493.59;5113197;28;20203;-66
2023/03/14 05:56:08;;;;;;;22.67;10.83;;;;;;;9.24;100.00;148366.03;5113895;28;20192;-67
2023/03/14 05:58:35;;;;;;;13.20;9.87;;;;;;;8.98;100.00;148300.38;5113755;28;20191;-67
2023/03/14 06:01:03;;;;;;;33.33;10.93;;;;;;;8.70;100.00;148232.19;5113168;28;20198;-65
2023/03/14 06:03:30;;;;;;;39.30;12.17;;;;;;;8.47;100.00;148172.91;5112975;28;20271;-60
2023/03/14 06:05:57;;;;;;;39.40;13.43;;;;;;;8.27;100.00;148123.66;5112785;28;20652;-65
2023/03/14 06:08:25;;;;;;;44.33;13.70;;;;;;;8.62;100.00;148212.00;5112921;28;20190;-64
2023/03/14 06:10:53;;;;;;;38.07;13.40;;;;;;;8.95;100.00;148294.09;5112508;28;20187;-67
2023/03/14 06:13:20;;;;;;;59.23;15.40;;;;;;;9.13;100.00;148339.50;5112894;28;20183;-67
2023/03/14 06:15:47;;;;;;;48.17;14.20;;;;;;;9.44;100.00;148416.53;5112949;28;20179;-68
2023/03/14 06:18:14;;;;;;;55.93;18.83;;;;;;;9.82;100.00;148510.00;5112737;28;20234;-68
2023/03/14 06:20:41;;;;;;;61.50;16.33;;;;;;;10.31;100.00;148633.84;5112740;28;20183;-67
2023/03/14 06:23:09;;;;;;;71.37;20.97;;;;;;;10.97;100.00;148799.47;5112351;28;20183;-67
2023/03/14 06:25:38;;;;;;;94.13;25.30;;;;;;;11.80;100.00;149005.66;5114245;28;20699;-71
2023/03/14 06:28:06;;;;;;;58.53;22.43;;;;;;;12.98;97.38;149300.66;5113636;28;20495;-67
2023/03/14 06:30:35;;;;;;;55.33;16.23;;;;;;;13.99;87.57;149555.34;5113634;28;20244;-68
2023/03/14 06:33:02;;;;;;;35.73;9.83;;;;;;;14.37;80.12;149650.47;5113248;28;20191;-68
2023/03/14 06:35:29;;;;;;;23.73;7.63;;;;;;;14.68;76.93;149726.56;5113077;28;20335;-69
2023/03/14 06:37:59;;;;;;;10.97;5.23;;;;;;;14.64;79.79;149718.91;5112602;28;20183;-68
2023/03/14 06:40:26;;;;;;;16.57;7.20;;;;;;;14.73;77.19;149740.47;5094989;28;20183;-68
2023/03/14 06:42:54;;;;;;;7.60;4.30;;;;;;;14.67;78.21;149724.00;5112830;28;20188;-68
2023/03/14 06:45:21;;;;;;;9.23;4.50;;;;;;;15.18;77.28;149852.13;5113230;28;20190;-68
2023/03/14 06:47:48;;;;;;;3.20;2.90;;;;;;;15.43;73.46;149915.53;5113931;28;20270;-68
2023/03/14 06:50:15;;;;;;;6.27;3.50;;;;;;;15.49;70.67;149930.75;5113777;28;20650;-69
2023/03/14 06:52:47;;;;;;;18.77;4.20;;;;;;;15.86;69.68;150024.75;5112895;28;20187;-63
2023/03/14 06:55:14;;;;;;;10.37;4.37;;;;;;;15.26;70.58;149873.69;5111702;28;20211;-63
2023/03/14 06:57:41;;;;;;;12.50;3.70;;;;;;;15.27;72.15;149876.22;5111624;28;20184;-64
2023/03/14 07:00:12;;;;;;;13.83;4.60;;;;;;;15.08;73.47;149829.28;5111504;28;20196;-63
2023/03/14 07:02:39;;;;;;;21.13;4.97;;;;;;;15.29;75.16;149880.00;5112168;28;20225;-64
2023/03/14 07:05:07;;;;;;;13.37;3.93;;;;;;;14.81;77.76;149760.75;5111335;28;20215;-64
2023/03/14 07:07:33;;;;;;;12.50;5.60;;;;;;;14.69;77.67;149730.31;5062634;28;20195;-64
2023/03/14 07:10:02;;;;;;;8.03;3.43;;;;;;;14.55;79.27;149694.84;5111790;28;20214;-64
2023/03/14 07:12:29;;;;;;;2.03;1.70;;;;;;;13.95;84.89;149543.94;5111414;28;20569;-62
2023/03/14 07:14:55;;;;;;;5.83;3.10;;;;;;;14.41;82.00;149659.34;5111242;28;20207;-62
2023/03/14 07:17:24;;;;;;;6.20;3.70;;;;;;;14.42;80.62;149663.16;5111314;28;20728;-63
2023/03/14 07:19:51;;;;;;;10.93;2.40;;;;;;;13.62;87.25;149462.81;5111773;28;20557;-63
2023/03/14 07:22:17;;;;;;;4.20;3.83;;;;;;;13.50;90.13;149432.41;5111869;28;20562;-63
2023/03/14 07:24:44;;;;;;;5.43;3.80;;;;;;;13.73;90.52;149489.44;5115485;28;20187;-63
2023/03/14 07:27:12;;;;;;;6.90;4.83;;;;;;;14.16;87.15;149597.19;5115127;28;20643;-63
2023/03/14 07:29:38;;;;;;;4.73;3.80;;;;;;;14.10;84.95;149583.22;5114980;28;20224;-63
2023/03/14 07:32:07;;;;;;;3.67;3.43;;;;;;;14.66;82.42;149722.72;5131069;27;20204;-61
2023/03/14 07:34:36;;;;;;;5.50;4.10;;;;;;;14.66;82.58;149721.47;5156681;27;20595;-63
2023/03/14 07:37:04;;;;;;;3.87;2.40;;;;;;;15.24;74.61;149868.59;5156156;27;20182;-61
2023/03/14 07:39:31;;;;;;;3.67;3.07;;;;;;;15.47;71.98;149926.97;5156272;27;20189;-62
2023/03/14 07:41:59;;;;;;;2.93;2.73;;;;;;;15.42;71.34;149914.28;5156367;27;20196;-63
2023/03/14 07:44:28;;;;;;;3.13;2.93;;;;;;;15.59;71.56;149954.91;5156432;27;20178;-63
2023/03/14 07:46:55;;;;;;;4.50;4.07;;;;;;;15.50;72.29;149933.34;5155746;27;20186;-63
2023/03/14 07:49:22;;;;;;;2.23;2.10;;;;;;;15.57;70.23;149951.13;5156313;27;20640;-62
2023/03/14 07:51:51;;;;;;;4.77;3.40;;;;;;;15.55;72.47;149946.03;5156002;27;20632;-63
2023/03/14 07:54:20;;;;;;;6.50;3.00;;;;;;;14.96;77.08;149797.56;5156019;27;20297;-63
2023/03/14 07:56:49;;;;;;;4.40;4.10;;;;;;;15.08;74.63;149828.00;5155775;27;20281;-63
2023/03/14 07:59:16;;;;;;;7.63;3.70;;;;;;;15.06;76.69;149822.94;5156178;27;20185;-63
2023/03/14 08:01:43;;;;;;;4.17;3.40;;;;;;;14.70;79.14;149731.59;5155861;27;20556;-63
2023/03/14 08:04:10;;;;;;;6.67;2.07;;;;;;;14.47;79.75;149674.56;5156259;27;20625;-63
2023/03/14 08:06:38;;;;;;;3.10;2.90;;;;;;;13.76;88.86;149495.75;5156038;27;20194;-62
2023/03/14 08:09:06;;;;;;;3.67;3.37;;;;;;;13.53;92.96;149438.78;5155885;27;20186;-63
2023/03/14 08:11:33;;;;;;;2.97;2.77;;;;;;;13.47;96.05;149423.53;5100003;27;20198;-62
2023/03/14 08:14:00;;;;;;;3.73;2.50;;;;;;;13.45;98.95;149418.50;5048736;28;20191;-63
2023/03/14 08:16:27;;;;;;;3.20;2.60;;;;;;;12.70;100.00;149230.97;5035455;28;20615;-63
2023/03/14 08:18:54;;;;;;;1.80;1.70;;;;;;;12.00;100.00;149056.31;5050515;28;20196;-62
2023/03/14 08:21:21;;;;;;;3.87;2.57;;;;;;;12.02;100.00;149061.34;5053413;28;20193;-68
2023/03/14 08:23:48;;;;;;;1.77;1.67;;;;;;;12.31;100.00;149134.75;5051381;28;20682;-68
2023/03/14 08:26:16;;;;;;;3.23;2.00;;;;;;;11.97;100.00;149048.69;5051763;28;20196;-68
2023/03/14 08:28:43;;;;;;;3.23;1.97;;;;;;;12.33;100.00;149138.56;5051548;28;20190;-69
2023/03/14 08:31:10;;;;;;;2.00;1.90;;;;;;;12.75;100.00;149244.91;5050568;28;20205;-68
2023/03/14 08:33:38;;;;;;;3.00;1.90;;;;;;;13.54;100.00;149442.53;5051072;28;20185;-68
2023/03/14 08:36:09;;;;;;;1.60;1.50;;;;;;;13.96;95.55;149547.72;5050100;28;20206;-69
2023/03/14 08:38:36;;;;;;;6.17;1.83;;;;;;;14.04;91.30;149568.03;5050827;28;20277;-68
2023/03/14 08:41:04;;;;;;;5.07;2.30;;;;;;;13.65;91.84;149469.19;5050484;28;20196;-68
2023/03/14 08:43:33;;;;;;;12.73;2.10;;;;;;;14.26;90.49;149622.50;5050795;28;20262;-66
2023/03/14 08:46:00;;;;;;;2.43;1.40;;;;;;;13.83;86.35;149513.53;5050874;28;20555;-67
2023/03/14 08:48:29;;;;;;;3.20;1.70;;;;;;;13.06;97.42;149322.19;5050147;28;20193;-64
2023/03/14 08:50:56;;;;;;;2.83;1.60;;;;;;;12.97;100.00;149299.38;5050631;28;20189;-65
2023/03/14 08:53:23;;;;;;;2.00;1.90;;;;;;;13.08;100.00;149325.94;5050671;28;20186;-66
2023/03/14 08:55:54;;;;;;;0.80;0.80;;;;;;;13.15;96.49;149345.00;5050651;28;20745;-65
2023/03/14 08:58:22;;;;;;;1.40;1.30;;;;;;;13.21;98.38;149358.94;5050577;28;20193;-66
2023/03/14 09:01:05;;;;;;;3.87;1.53;;;;;;;12.79;100.00;149253.78;5050379;28;20189;-66
2023/03/14 09:03:32;;;;;;;2.03;1.43;;;;;;;13.35;95.47;149393.16;5050164;28;20220;-67
2023/03/14 09:06:04;;;;;;;1.40;1.30;;;;;;;13.38;90.07;149400.72;5050793;28;20282;-65
2023/03/14 09:08:31;;;;;;;1.83;1.20;;;;;;;13.81;90.71;149508.44;5049995;28;20205;-66
2023/03/14 09:10:58;;;;;;;1.43;1.40;;;;;;;13.33;84.92;149388.06;5050437;28;20560;-66
2023/03/14 09:13:25;;;;;;;2.13;1.60;;;;;;;13.64;87.58;149466.63;5050337;28;20178;-66
2023/03/14 09:15:54;;;;;;;1.60;1.30;;;;;;;13.42;93.62;149410.88;5034622;28;20626;-66
2023/03/14 09:18:21;;;;;;;1.70;1.60;;;;;;;13.16;92.49;149347.53;5054604;28;20182;-66
2023/03/14 09:20:48;;;;;;;2.27;1.40;;;;;;;13.04;96.99;149317.09;5050067;28;20189;-66
2023/03/14 09:23:15;;;;;;;3.00;1.57;;;;;;;13.63;92.49;149465.34;5049486;28;20189;-66
2023/03/14 09:25:42;;;;;;;2.77;2.07;;;;;;;14.75;82.49;149744.28;5049733;28;20182;-66
2023/03/14 09:28:09;;;;;;;1.70;1.50;;;;;;;15.05;72.66;149821.66;5049537;28;20193;-66
2023/03/14 09:30:36;;;;;;;2.17;1.40;;;;;;;15.37;73.96;149901.56;5049760;28;20641;-66
2023/03/14 09:33:05;;;;;;;1.53;1.07;;;;;;;14.84;77.05;149768.41;5050281;27;20190;-66
2023/03/14 09:35:34;;;;;;;1.83;1.30;;;;;;;14.05;85.77;149570.53;5049520;28;20206;-66
2023/03/14 09:38:01;;;;;;;1.67;1.40;;;;;;;14.44;84.50;149668.19;5049560;28;20204;-65
2023/03/14 09:40:34;;;;;;;2.57;1.27;;;;;;;14.75;82.33;149744.28;5049137;28;20307;-65
2023/03/14 09:43:01;;;;;;;1.77;1.30;;;;;;;14.09;89.88;149579.41;5049796;28;20588;-65
2023/03/14 09:45:32;;;;;;;4.83;1.60;;;;;;;14.46;91.24;149673.31;5049142;28;20181;-66
2023/03/14 09:48:00;;;;;;;1.70;1.30;;;;;;;15.16;79.93;149848.28;5048611;28;20189;-66
2023/03/14 09:50:37;;;;;;;1.20;1.20;;;;;;;14.73;81.51;149740.47;5050058;28;20658;-68
2023/03/14 09:53:10;;;;;;;1.60;1.50;;;;;;;14.33;88.68;149639.00;5049846;28;20189;-65
2023/03/14 09:55:37;;;;;;;4.70;1.80;;;;;;;14.23;88.07;149614.91;5049366;28;20631;-65
2023/03/14 09:58:12;;;;;;;1.40;1.30;;;;;;;14.39;85.33;149654.25;5048906;28;20185;-66
2023/03/14 10:00:39;;;;;;;2.20;1.97;;;;;;;14.38;88.62;149651.75;5048772;28;20181;-65
2023/03/14 10:03:23;;;;;;;4.27;1.63;;;;;;;14.79;86.35;149755.72;5049187;28;20222;-66
2023/03/14 10:05:52;;;;;;;0.90;0.90;;;;;;;14.46;82.00;149672.03;5049408;28;20196;-66
2023/03/14 10:08:21;;;;;;;1.60;1.37;;;;;;;14.75;82.16;149745.56;5049558;28;20197;-66
2023/03/14 10:10:52;;;;;;;1.53;1.40;;;;;;;14.89;80.13;149781.09;5049283;28;20193;-64
2023/03/14 10:13:24;;;;;;;1.87;1.50;;;;;;;14.34;85.63;149641.56;5049275;28;20178;-65
2023/03/14 10:15:54;;;;;;;1.40;1.30;;;;;;;13.88;87.05;149527.44;5048759;28;20295;-65
2023/03/14 10:18:23;;;;;;;1.30;1.20;;;;;;;14.63;nan;149715.13;5133024;27;20179;-65
2023/03/14 10:21:04;;;;;;;1.60;1.50;;;;;;;14.94;81.25;149793.75;5132768;27;20183;-66
2023/03/14 10:23:36;;;;;;;2.20;1.30;;;;;;;14.99;76.89;149805.16;5115053;27;20178;-65
2023/03/14 10:26:14;;;;;;;2.00;1.30;;;;;;;14.34;80.72;149641.56;5132910;27;20198;-66
2023/03/14 10:28:45;;;;;;;1.03;1.03;;;;;;;14.84;73.62;149767.13;5132185;27;20182;-65
2023/03/14 10:31:12;;;;;;;7.57;2.20;;;;;;;15.92;70.72;150038.66;5132421;27;20187;-65
2023/03/14 10:33:39;;;;;;;1.17;1.10;;;;;;;15.85;66.27;150022.19;5132461;27;20589;-66
2023/03/14 10:36:20;;;;;;;3.00;1.50;;;;;;;15.49;65.63;149932.00;5129500;27;20544;-65
2023/03/14 10:38:47;;;;;;;4.73;1.13;;;;;;;15.63;67.75;149966.34;5132310;27;20178;-65
2023/03/14 10:41:21;;;;;;;3.20;1.50;;;;;;;15.99;68.28;150057.75;5132730;28;20530;-66
2023/03/14 10:43:51;;;;;;;2.40;1.43;;;;;;;15.59;65.03;149954.91;5132224;28;20191;-65
2023/03/14 10:46:20;;;;;;;1.23;1.13;;;;;;;15.62;59.55;149963.78;5132381;28;20213;-66
2023/03/14 10:48:49;;;;;;;1.93;1.60;;;;;;;16.56;61.66;150199.91;5132140;28;20191;-65
2023/03/14 10:51:25;;;;;;;8.20;1.87;;;;;;;17.23;60.12;150367.63;5132092;28;20535;-65
2023/03/14 10:53:58;;;;;;;1.43;1.33;;;;;;;17.90;56.84;150535.47;5132088;27;20293;-65
2023/03/14 10:56:27;;;;;;;1.53;1.43;;;;;;;16.98;58.95;150304.09;5132274;28;20202;-65
2023/03/14 10:58:58;;;;;;;1.60;1.50;;;;;;;15.71;67.21;149986.63;5135298;27;20194;-65
2023/03/14 11:01:38;;;;;;;1.73;1.30;;;;;;;16.23;57.92;150116.13;5136406;27;20690;-66
2023/03/14 11:04:17;;;;;;;1.73;1.20;;;;;;;16.00;60.33;150058.97;5119316;27;20575;-65
2023/03/14 11:06:54;;;;;;;1.50;1.40;;;;;;;15.53;67.75;149941.00;5136669;27;20179;-65
2023/03/14 11:09:30;;;;;;;3.43;1.50;;;;;;;16.74;61.37;150244.41;5135875;27;20193;-65
2023/03/14 11:12:05;;;;;;;2.20;1.43;;;;;;;17.67;53.51;150478.25;5136488;27;20201;-66
2023/03/14 11:14:39;;;;;;;1.20;1.20;;;;;;;17.81;50.97;150513.84;5136161;27;20198;-65
2023/03/14 11:17:16;;;;;;;4.97;1.20;;;;;;;17.50;52.28;150436.25;5101353;27;20252;-65
2023/03/14 11:20:07;;;;;;;1.10;1.10;;;;;;;17.03;54.51;150318.09;5051745;28;20200;-64
2023/03/14 11:22:44;;;;;;;3.90;1.50;;;;;;;14.99;61.71;149806.44;5051868;28;20190;-67
2023/03/14 11:25:22;;;;;;;6.67;1.70;;;;;;;14.03;66.99;149565.50;5052064;28;20628;-65